Buffalo, MN

5:53 AM CDT on May 26, 2015 (GMT -0500)
Wright Hennepin | | Change Station
CLOSE
Current Station
Personal Weather Station
Location: Rockford, MN
Elevation: 988 ft
Nearby Weather Stations

Elev 988 ft 45.10 °N, 93.75 °W | Updated 5 seconds ago

Overcast
Overcast
56.7 °F
Feels Like 56.7 °F
N
2.0
Wind Variable Wind from WNW
Gusts 4.0 mph

Today
High -- | Low -- °F
--% Chance of Precip.
Yesterday
High -- | Low -- °F
Precip. -- in
5:35 AM 8:49 PM
First Quarter, 57% visible
Pressure 29.81 in
Visibility 7.0 miles
Clouds Overcast 400 ft
Dew Point 56 °F
Humidity 97%
Rainfall 0.00 in
Snow Depth Not available.
UV 0 out of 12
Pollen .90 out of 12
Air Quality Not available.
Flu Activity Sporadic
METAR KCFE 261035Z AUTO 33003KT 7SM OVC004 14/13 A2981 RMK AO2 T01360125

More Conditions Fewer Conditions

Pressure 29.81 in
Visibility 7.0 miles
Clouds Overcast 400 ft
Dew Point 56 °F
Humidity 97%
Rainfall 0.00 in
Snow Depth Not available.
UV 0 out of 12
Pollen .90 out of 12
Air Quality Not available.
Flu Activity Sporadic
METAR KCFE 261035Z AUTO 33003KT 7SM OVC004 14/13 A2981 RMK AO2 T01360125

More Conditions Fewer Conditions

10-Day Weather Forecast

Almanac

Astronomy

May. 26, 2015 Rise Set
Actual Time
Civil Twilight
Nautical Twilight
Astronomical Twilight
Moon
Length of Visible Light
Length of Day
Tomorrow will be .
, % of the Moon is Illuminated

Today's Extremes

State Highs State Lows

Community

WunderPhotos

Upload Photos

1,824,305 photos uploaded!

WunderBlogs® & News

Nearby

Air Quality

  Air Quality AQ Index Pollutant
Not available.

Snow Depth

Station Depth Elevation

Earthquake Activity

City Distance Mag. Time & Date
Minimum magnitude displayed is 2.5.

Coastal Water Temperatures

Place Temperature

Stations

Nearby Weather Stations

Station Location Temp. Windchill Dew Point Humidity Wind Precip. Elev Updated Type